Time;durP1;ratioP1;P1;durP2;ratioP2;P2;SDS_P1;SDS_P2;PMS_P1;PMS_P2;Temp;Humidity;BMP_temperature;BMP_pressure;BME280_temperature;BME280_humidity;BME280_pressure;Samples;Min_cycle;Max_cycle;Signal;HPM_P1;HPM_P2
2023/02/21 02:15:37;;;;;;;5.95;3.80;;;;;;;;;;10288835;28;20019;-80
2023/02/21 02:20:57;;;;;;;6.22;3.65;;;;;;;;;;10288471;28;20556;-81
2023/02/21 02:26:20;;;;;;;8.88;3.92;;;;;;;;;;10271331;28;20058;-80
2023/02/21 02:31:20;;;;;;;8.98;3.63;;;;;;;;;;10285729;28;20031;-76
2023/02/21 02:36:24;;;;;;;8.27;3.30;;;;;;;;;;10289405;28;20031;-78
2023/02/21 02:41:30;;;;;;;5.03;2.83;;;;;;;;;;10271334;28;20031;-81
2023/02/21 02:46:34;;;;;;;5.90;3.13;;;;;;;;;;10287332;28;20049;-78
2023/02/21 02:51:34;;;;;;;8.38;3.33;;;;;;;;;;10268353;28;20520;-81
2023/02/21 02:56:35;;;;;;;8.75;3.65;;;;;;;;;;10283791;28;20014;-79
2023/02/21 03:01:48;;;;;;;4.88;3.08;;;;;;;;;;10283587;28;20051;-76
2023/02/21 03:07:00;;;;;;;5.57;3.15;;;;;;;;;;10286894;28;20451;-79
2023/02/21 03:12:08;;;;;;;5.90;2.95;;;;;;;;;;10284440;28;20042;-80
2023/02/21 03:17:10;;;;;;;9.97;3.43;;;;;;;;;;10265927;28;20029;-75
2023/02/21 03:22:30;;;;;;;6.40;3.53;;;;;;;;;;10284757;28;20113;-82
2023/02/21 03:27:31;;;;;;;5.72;4.10;;;;;;;;;;10285897;28;20031;-76
2023/02/21 03:32:37;;;;;;;7.13;3.08;;;;;;;;;;10287341;28;20370;-79
2023/02/21 03:37:39;;;;;;;9.15;3.70;;;;;;;;;;10282489;28;20507;-75
2023/02/21 03:42:40;;;;;;;7.15;3.33;;;;;;;;;;10281144;28;20503;-75
2023/02/21 03:47:40;;;;;;;12.18;4.07;;;;;;;;;;10263608;28;20027;-76
2023/02/21 03:52:40;;;;;;;6.55;3.45;;;;;;;;;;10284758;28;20481;-78
2023/02/21 03:57:40;;;;;;;6.35;2.78;;;;;;;;;;10283062;28;20049;-76
2023/02/21 04:02:41;;;;;;;10.20;4.03;;;;;;;;;;10299511;28;20081;-75
2023/02/21 04:07:41;;;;;;;6.70;3.35;;;;;;;;;;10303960;28;20028;-80
2023/02/21 04:12:42;;;;;;;7.07;3.50;;;;;;;;;;10304624;28;20464;-75
2023/02/21 04:17:42;;;;;;;7.25;3.38;;;;;;;;;;10303389;28;20037;-73
2023/02/21 04:22:42;;;;;;;5.43;3.38;;;;;;;;;;10347573;23;20061;-76
2023/02/21 04:27:42;;;;;;;6.83;3.43;;;;;;;;;;10396864;28;20053;-82
2023/02/21 04:32:43;;;;;;;10.47;3.90;;;;;;;;;;10403200;28;20075;-76
2023/02/21 04:37:44;;;;;;;9.10;4.00;;;;;;;;;;10403646;28;20021;-78
2023/02/21 04:42:44;;;;;;;7.78;3.65;;;;;;;;;;10389812;28;20017;-74
2023/02/21 04:47:44;;;;;;;8.47;4.07;;;;;;;;;;10383967;28;20057;-79
2023/02/21 04:52:45;;;;;;;6.60;3.60;;;;;;;;;;10379323;28;20025;-73
2023/02/21 04:57:46;;;;;;;13.05;4.20;;;;;;;;;;10394049;28;20087;-77
2023/02/21 05:02:46;;;;;;;12.73;5.10;;;;;;;;;;10422134;28;20112;-77
2023/02/21 05:07:46;;;;;;;12.13;4.13;;;;;;;;;;10386054;28;20407;-77
2023/02/21 05:12:49;;;;;;;7.13;4.00;;;;;;;;;;10383214;28;20491;-77
2023/02/21 05:17:50;;;;;;;6.95;3.65;;;;;;;;;;10365776;28;20064;-77
2023/02/21 05:22:51;;;;;;;8.70;3.80;;;;;;;;;;10382404;28;20494;-74
2023/02/21 05:27:51;;;;;;;9.60;3.37;;;;;;;;;;10379234;28;20063;-80
2023/02/21 05:32:52;;;;;;;10.90;4.05;;;;;;;;;;10415635;28;20053;-79
2023/02/21 05:37:52;;;;;;;8.43;3.40;;;;;;;;;;10404452;28;20025;-81
2023/02/21 05:42:53;;;;;;;11.93;3.58;;;;;;;;;;10417587;28;20275;-80
2023/02/21 05:47:57;;;;;;;5.32;3.35;;;;;;;;;;10388643;28;20064;-79
2023/02/21 05:52:58;;;;;;;9.35;4.32;;;;;;;;;;10396858;28;20112;-75
2023/02/21 05:57:59;;;;;;;7.82;4.45;;;;;;;;;;10390965;28;20033;-77
2023/02/21 06:03:00;;;;;;;8.18;4.50;;;;;;;;;;10439441;28;20041;-77
2023/02/21 06:08:05;;;;;;;6.70;3.35;;;;;;;;;;10383298;28;20566;-72
2023/02/21 06:13:06;;;;;;;8.65;3.90;;;;;;;;;;10397431;28;20108;-82
2023/02/21 06:18:06;;;;;;;11.93;4.47;;;;;;;;;;10375103;28;20318;-78
2023/02/21 06:23:06;;;;;;;8.53;4.00;;;;;;;;;;10389059;28;20111;-80
2023/02/21 06:28:07;;;;;;;14.98;4.90;;;;;;;;;;10385710;28;20264;-82
2023/02/21 06:33:08;;;;;;;6.30;3.83;;;;;;;;;;10393604;28;20017;-79
2023/02/21 06:38:08;;;;;;;9.77;4.90;;;;;;;;;;10403967;28;20028;-81
2023/02/21 06:43:08;;;;;;;11.40;5.68;;;;;;;;;;10364778;28;20084;-80
2023/02/21 06:48:18;;;;;;;15.07;4.83;;;;;;;;;;10389618;28;20041;-79
2023/02/21 06:53:19;;;;;;;14.23;5.22;;;;;;;;;;10405841;28;20030;-75
2023/02/21 06:58:19;;;;;;;13.67;4.17;;;;;;;;;;10381661;28;20454;-76
2023/02/21 07:03:19;;;;;;;9.83;4.97;;;;;;;;;;10385417;28;20392;-78
2023/02/21 07:08:20;;;;;;;13.73;4.38;;;;;;;;;;10402588;28;20446;-80
2023/02/21 07:13:20;;;;;;;12.93;4.63;;;;;;;;;;10408884;28;20462;-79
2023/02/21 07:18:21;;;;;;;11.73;4.78;;;;;;;;;;10402924;28;20041;-77
2023/02/21 07:23:21;;;;;;;16.90;5.93;;;;;;;;;;10391092;28;20053;-81
2023/02/21 07:28:22;;;;;;;9.52;4.10;;;;;;;;;;10407852;28;20112;-79
2023/02/21 07:33:22;;;;;;;10.93;4.68;;;;;;;;;;10383754;28;20481;-79
2023/02/21 07:38:24;;;;;;;16.95;5.18;;;;;;;;;;10384753;28;20580;-81
2023/02/21 07:43:25;;;;;;;16.25;5.30;;;;;;;;;;10382851;28;20060;-78
2023/02/21 07:48:26;;;;;;;14.68;5.05;;;;;;;;;;10376422;28;20364;-77
2023/02/21 07:53:26;;;;;;;14.57;5.23;;;;;;;;;;10383401;28;20022;-78
2023/02/21 07:58:28;;;;;;;17.90;5.93;;;;;;;;;;10390555;28;20276;-75
2023/02/21 08:03:28;;;;;;;24.10;7.05;;;;;;;;;;10381681;28;20559;-77
2023/02/21 08:08:28;;;;;;;16.70;6.80;;;;;;;;;;10376966;28;20029;-80
2023/02/21 08:13:29;;;;;;;23.73;6.77;;;;;;;;;;10377402;28;20017;-79
2023/02/21 08:18:29;;;;;;;15.68;7.13;;;;;;;;;;10391706;28;20309;-79
2023/02/21 08:23:29;;;;;;;19.13;7.32;;;;;;;;;;10403561;28;20628;-78
2023/02/21 08:28:29;;;;;;;22.20;7.00;;;;;;;;;;10379773;28;20025;-79
2023/02/21 08:33:30;;;;;;;26.17;8.53;;;;;;;;;;10390590;28;20158;-78
2023/02/21 08:38:30;;;;;;;13.77;6.88;;;;;;;;;;10358396;28;20513;-73
2023/02/21 08:43:54;;;;;;;19.27;6.40;;;;;;;;;;10399644;28;20049;-77
2023/02/21 08:48:57;;;;;;;21.35;7.70;;;;;;;;;;10402227;28;20120;-74
2023/02/21 08:53:58;;;;;;;19.58;6.20;;;;;;;;;;10385761;28;20028;-80
2023/02/21 08:58:58;;;;;;;21.00;6.72;;;;;;;;;;10376852;28;20024;-82
2023/02/21 09:04:04;;;;;;;17.17;5.57;;;;;;;;;;10382230;28;20388;-79
2023/02/21 09:09:04;;;;;;;17.33;5.53;;;;;;;;;;10368555;28;20021;-78
2023/02/21 09:14:05;;;;;;;30.50;6.53;;;;;;;;;;10382179;28;20021;-81
2023/02/21 09:19:23;;;;;;;12.13;4.28;;;;;;;;;;10388499;28;20089;-72
2023/02/21 09:24:24;;;;;;;14.75;5.55;;;;;;;;;;10387323;28;20048;-79
2023/02/21 09:29:27;;;;;;;8.98;4.07;;;;;;;;;;10403923;28;20399;-81
2023/02/21 09:34:28;;;;;;;11.23;4.00;;;;;;;;;;10374853;28;20104;-79
2023/02/21 09:39:28;;;;;;;16.83;5.35;;;;;;;;;;10394467;28;20017;-80
2023/02/21 09:44:29;;;;;;;7.57;3.78;;;;;;;;;;10382276;28;20021;-84
2023/02/21 09:49:40;;;;;;;13.57;4.83;;;;;;;;;;10413933;28;20417;-78
2023/02/21 09:54:43;;;;;;;5.88;3.83;;;;;;;;;;10391456;28;20327;-79
2023/02/21 09:59:44;;;;;;;7.75;3.78;;;;;;;;;;10401740;28;20078;-76
2023/02/21 10:04:44;;;;;;;10.38;3.97;;;;;;;;;;10376559;28;20064;-79
2023/02/21 10:09:54;;;;;;;15.43;4.40;;;;;;;;;;10399172;28;20132;-82
2023/02/21 10:15:18;;;;;;;9.68;2.72;;;;;;;;;;10381124;28;20518;-81
2023/02/21 10:20:27;;;;;;;9.35;3.47;;;;;;;;;;10361380;28;20181;-78
2023/02/21 10:25:31;;;;;;;11.50;2.50;;;;;;;;;;10330162;28;20057;-79
2023/02/21 10:30:39;;;;;;;10.70;3.03;;;;;;;;;;10356664;28;20018;-82
2023/02/21 10:35:39;;;;;;;4.88;2.45;;;;;;;;;;10354449;28;20049;-74
2023/02/21 10:40:45;;;;;;;6.55;2.38;;;;;;;;;;10366917;28;20033;-79
2023/02/21 10:45:54;;;;;;;5.00;2.00;;;;;;;;;;10348361;28;20025;-77
2023/02/21 10:51:05;;;;;;;6.45;2.10;;;;;;;;;;10345873;28;20124;-81
2023/02/21 10:56:06;;;;;;;6.53;2.45;;;;;;;;;;10340677;28;20034;-79
2023/02/21 11:01:24;;;;;;;9.57;3.10;;;;;;;;;;10362672;28;20022;-80
2023/02/21 11:06:53;;;;;;;5.72;2.67;;;;;;;;;;10388654;28;20042;-76
2023/02/21 11:12:00;;;;;;;9.98;2.33;;;;;;;;;;10365408;28;20022;-79
2023/02/21 11:17:09;;;;;;;1.40;0.80;;;;;;;;;;10347340;28;20030;-80
2023/02/21 11:22:10;;;;;;;3.80;1.10;;;;;;;;;;10331016;28;20065;-79
2023/02/21 11:27:12;;;;;;;2.00;0.90;;;;;;;;;;10385152;28;20624;-77
2023/02/21 11:32:40;;;;;;;6.68;1.10;;;;;;;;;;10387466;28;20087;-77
2023/02/21 11:38:01;;;;;;;1.63;0.80;;;;;;;;;;10355119;28;20284;-83
2023/02/21 11:43:12;;;;;;;2.00;0.95;;;;;;;;;;10366816;28;20029;-70
2023/02/21 11:48:16;;;;;;;3.30;0.85;;;;;;;;;;10412129;28;20083;-80
2023/02/21 11:53:17;;;;;;;2.28;1.02;;;;;;;;;;10383897;28;20071;-79
2023/02/21 11:58:35;;;;;;;2.35;0.90;;;;;;;;;;10392993;28;20079;-80
2023/02/21 12:03:54;;;;;;;3.80;1.30;;;;;;;;;;10363999;28;20114;-77
2023/02/21 12:09:16;;;;;;;3.58;1.30;;;;;;;;;;10396564;28;20033;-79
2023/02/21 12:14:31;;;;;;;5.53;3.45;;;;;;;;;;10401231;28;20025;-80
2023/02/21 12:19:35;;;;;;;3.72;1.80;;;;;;;;;;10368499;28;20480;-79
2023/02/21 12:24:35;;;;;;;3.08;1.77;;;;;;;;;;10400709;28;20068;-74
2023/02/21 12:29:38;;;;;;;7.20;1.67;;;;;;;;;;10410608;28;20025;-70
2023/02/21 12:35:14;;;;;;;3.85;1.80;;;;;;;;;;10416845;28;20443;-79
2023/02/21 12:40:19;;;;;;;4.18;1.80;;;;;;;;;;10274028;28;20033;-78
2023/02/21 12:45:28;;;;;;;2.63;1.38;;;;;;;;;;10381124;28;20037;-80
2023/02/21 12:50:34;;;;;;;4.00;2.28;;;;;;;;;;10367754;28;20032;-79
2023/02/21 12:55:40;;;;;;;3.72;1.55;;;;;;;;;;10382642;28;20502;-80
2023/02/21 13:00:43;;;;;;;2.55;1.10;;;;;;;;;;10393836;28;20041;-71
2023/02/21 13:05:45;;;;;;;5.25;1.20;;;;;;;;;;10406578;28;20101;-81
2023/02/21 13:10:54;;;;;;;6.15;1.55;;;;;;;;;;10361507;28;20037;-80
2023/02/21 13:15:56;;;;;;;4.13;1.20;;;;;;;;;;10374389;28;20028;-81
2023/02/21 13:21:00;;;;;;;8.57;3.97;;;;;;;;;;10369241;28;20046;-79
2023/02/21 13:26:01;;;;;;;4.93;1.63;;;;;;;;;;10408094;28;20061;-83
2023/02/21 13:31:03;;;;;;;4.00;1.60;;;;;;;;;;10411938;28;20030;-76
2023/02/21 13:36:27;;;;;;;6.85;1.80;;;;;;;;;;10397346;28;20025;-73
2023/02/21 13:41:29;;;;;;;2.65;1.05;;;;;;;;;;10394082;28;20116;-80
2023/02/21 13:46:30;;;;;;;3.92;2.25;;;;;;;;;;10390846;28;20030;-75
2023/02/21 13:51:46;;;;;;;5.32;1.58;;;;;;;;;;10392945;28;20488;-78
2023/02/21 13:56:47;;;;;;;3.72;1.40;;;;;;;;;;10406180;28;20060;-81
2023/02/21 14:01:56;;;;;;;3.42;1.45;;;;;;;;;;10388481;28;20226;-81
2023/02/21 14:06:57;;;;;;;3.63;2.28;;;;;;;;;;10416854;28;20026;-79
2023/02/21 14:12:00;;;;;;;8.67;1.57;;;;;;;;;;10375581;28;20572;-80
2023/02/21 14:17:02;;;;;;;4.05;1.80;;;;;;;;;;10398306;28;20474;-74
2023/02/21 14:22:23;;;;;;;5.22;1.73;;;;;;;;;;10398282;28;20049;-81
2023/02/21 14:27:26;;;;;;;2.45;1.60;;;;;;;;;;10406718;28;20034;-81
2023/02/21 14:32:35;;;;;;;6.32;2.47;;;;;;;;;;10386064;28;20461;-79
2023/02/21 14:37:58;;;;;;;3.95;1.80;;;;;;;;;;10410262;28;20036;-79
2023/02/21 14:43:29;;;;;;;4.05;2.00;;;;;;;;;;10392112;28;20025;-83
2023/02/21 14:48:30;;;;;;;9.90;2.38;;;;;;;;;;10392403;28;20036;-70
2023/02/21 14:53:43;;;;;;;3.40;1.65;;;;;;;;;;10403408;28;20105;-78
2023/02/21 14:58:52;;;;;;;5.47;1.70;;;;;;;;;;10386182;28;20468;-83
2023/02/21 15:04:12;;;;;;;6.90;1.50;;;;;;;;;;10385703;28;20017;-76
2023/02/21 15:09:17;;;;;;;6.00;1.50;;;;;;;;;;10387916;28;20037;-79
2023/02/21 15:14:26;;;;;;;5.43;1.95;;;;;;;;;;10384851;28;20052;-78
2023/02/21 15:19:31;;;;;;;6.65;2.30;;;;;;;;;;10418021;28;20029;-79
2023/02/21 15:24:32;;;;;;;5.30;1.75;;;;;;;;;;10367803;28;20050;-78
2023/02/21 15:29:32;;;;;;;4.10;2.27;;;;;;;;;;10396370;28;20503;-81
2023/02/21 15:34:37;;;;;;;8.33;2.20;;;;;;;;;;10387317;28;20476;-79
2023/02/21 15:39:38;;;;;;;4.45;2.00;;;;;;;;;;10394354;28;20020;-83
2023/02/21 15:44:48;;;;;;;9.40;2.20;;;;;;;;;;10391523;28;20077;-81
2023/02/21 15:49:58;;;;;;;4.43;2.03;;;;;;;;;;10375672;28;20075;-72
2023/02/21 15:55:17;;;;;;;5.50;2.30;;;;;;;;;;10375193;28;20033;-77
2023/02/21 16:00:28;;;;;;;10.10;2.60;;;;;;;;;;10399852;28;20042;-77
2023/02/21 16:11:06;;;;;;;9.85;3.15;;;;;;;;;;10399389;28;20025;-74
2023/02/21 16:16:08;;;;;;;16.57;4.90;;;;;;;;;;10359183;28;20037;-75
2023/02/21 16:21:20;;;;;;;12.70;5.07;;;;;;;;;;10375141;28;20455;-77
2023/02/21 16:26:26;;;;;;;10.73;4.80;;;;;;;;;;10367336;28;20076;-75
2023/02/21 16:31:31;;;;;;;14.23;5.25;;;;;;;;;;10383579;28;20045;-79
2023/02/21 16:36:34;;;;;;;22.55;6.13;;;;;;;;;;10331563;23;20046;-75
2023/02/21 16:41:34;;;;;;;19.52;8.48;;;;;;;;;;10305776;28;20097;-74
2023/02/21 16:46:34;;;;;;;19.40;7.22;;;;;;;;;;10286327;28;20049;-78
2023/02/21 16:51:34;;;;;;;23.33;7.00;;;;;;;;;;10282121;28;20473;-76
2023/02/21 16:56:38;;;;;;;16.80;4.70;;;;;;;;;;10302148;28;20023;-74
2023/02/21 17:01:39;;;;;;;20.80;6.97;;;;;;;;;;10307200;28;20034;-77
2023/02/21 17:06:43;;;;;;;20.90;5.88;;;;;;;;;;10304880;28;20030;-79
2023/02/21 17:11:44;;;;;;;24.52;5.97;;;;;;;;;;10287433;28;20037;-76
2023/02/21 17:16:44;;;;;;;16.92;6.85;;;;;;;;;;10298011;28;20552;-73
2023/02/21 17:21:46;;;;;;;16.45;6.13;;;;;;;;;;10290688;28;20406;-78
2023/02/21 17:26:46;;;;;;;17.67;5.38;;;;;;;;;;10279326;28;20406;-75
2023/02/21 17:31:50;;;;;;;20.30;7.28;;;;;;;;;;10297417;28;20031;-76
2023/02/21 17:36:52;;;;;;;16.83;7.13;;;;;;;;;;10301340;28;20068;-76
2023/02/21 17:41:52;;;;;;;37.08;7.82;;;;;;;;;;10301862;28;20042;-77
2023/02/21 17:46:53;;;;;;;17.00;8.07;;;;;;;;;;10299082;28;20118;-72
2023/02/21 17:51:54;;;;;;;11.38;5.90;;;;;;;;;;10288706;28;20035;-78
2023/02/21 17:56:56;;;;;;;14.77;5.68;;;;;;;;;;10304511;28;20484;-72
2023/02/21 18:01:56;;;;;;;17.88;6.40;;;;;;;;;;10267651;28;20046;-77
2023/02/21 18:07:00;;;;;;;16.85;7.00;;;;;;;;;;10289740;28;20081;-80
2023/02/21 18:12:01;;;;;;;17.10;6.55;;;;;;;;;;10286488;28;20034;-80
2023/02/21 18:17:01;;;;;;;21.15;7.95;;;;;;;;;;10307296;28;20038;-79
2023/02/21 18:22:04;;;;;;;18.25;7.15;;;;;;;;;;10287326;28;20416;-81
2023/02/21 18:27:05;;;;;;;24.00;8.55;;;;;;;;;;10298151;28;20081;-78
2023/02/21 18:32:05;;;;;;;20.15;8.55;;;;;;;;;;10286321;28;20035;-75
2023/02/21 18:37:07;;;;;;;15.57;7.82;;;;;;;;;;10322455;28;20097;-74
2023/02/21 18:42:08;;;;;;;19.20;7.32;;;;;;;;;;10305501;28;20062;-80
2023/02/21 18:47:10;;;;;;;18.40;7.35;;;;;;;;;;10335715;28;20037;-77
2023/02/21 18:52:10;;;;;;;16.27;7.18;;;;;;;;;;10321852;28;20528;-76
2023/02/21 18:57:11;;;;;;;21.20;8.35;;;;;;;;;;10315207;28;20336;-77
2023/02/21 19:02:16;;;;;;;33.70;10.63;;;;;;;;;;10320886;28;20041;-74
2023/02/21 19:07:17;;;;;;;27.63;10.93;;;;;;;;;;10340492;28;20504;-73
2023/02/21 19:12:17;;;;;;;22.52;10.38;;;;;;;;;;10306891;28;20144;-75
2023/02/21 19:17:17;;;;;;;26.52;8.68;;;;;;;;;;10322653;28;20042;-75
2023/02/21 19:22:18;;;;;;;18.93;8.23;;;;;;;;;;10318707;28;20022;-74
2023/02/21 19:27:18;;;;;;;18.40;8.60;;;;;;;;;;10326570;28;20064;-74
2023/02/21 19:32:18;;;;;;;23.23;9.37;;;;;;;;;;10326445;28;20036;-74
2023/02/21 19:37:18;;;;;;;25.50;9.77;;;;;;;;;;10328506;28;20030;-75
2023/02/21 19:42:19;;;;;;;18.67;8.45;;;;;;;;;;10327480;28;20026;-78
2023/02/21 19:47:19;;;;;;;25.93;10.10;;;;;;;;;;10306706;28;20433;-79
2023/02/21 19:52:19;;;;;;;31.88;10.00;;;;;;;;;;10336764;28;20033;-80
2023/02/21 19:57:20;;;;;;;27.45;8.95;;;;;;;;;;10310392;28;20026;-74
2023/02/21 20:02:20;;;;;;;17.83;8.75;;;;;;;;;;10303187;28;20492;-77
2023/02/21 20:07:20;;;;;;;21.65;9.32;;;;;;;;;;10384366;22;20524;-73
2023/02/21 20:12:26;;;;;;;21.15;8.20;;;;;;;;;;10375566;28;20033;-78
2023/02/21 20:17:27;;;;;;;26.90;9.48;;;;;;;;;;10386510;28;20032;-78
2023/02/21 20:22:32;;;;;;;13.80;7.68;;;;;;;;;;10372847;28;20111;-76
2023/02/21 20:27:33;;;;;;;15.82;7.60;;;;;;;;;;10369066;28;20152;-73
2023/02/21 20:32:33;;;;;;;18.27;7.47;;;;;;;;;;10368437;28;20048;-76
2023/02/21 20:37:34;;;;;;;17.92;8.32;;;;;;;;;;10360043;28;20053;-81
2023/02/21 20:42:34;;;;;;;23.65;8.18;;;;;;;;;;10374656;28;20021;-74
2023/02/21 20:47:35;;;;;;;24.75;9.75;;;;;;;;;;10372499;28;20033;-73
2023/02/21 20:52:35;;;;;;;19.27;7.63;;;;;;;;;;10380634;28;20041;-76
2023/02/21 20:57:36;;;;;;;23.23;7.88;;;;;;;;;;10383295;28;20033;-81
2023/02/21 21:02:37;;;;;;;29.08;11.38;;;;;;;;;;10382824;28;20041;-71
2023/02/21 21:07:41;;;;;;;24.35;11.45;;;;;;;;;;10365697;28;20507;-79
2023/02/21 21:12:42;;;;;;;19.20;9.23;;;;;;;;;;10370176;28;20087;-78
2023/02/21 21:17:45;;;;;;;19.88;9.60;;;;;;;;;;10385564;28;20044;-80
2023/02/21 21:22:46;;;;;;;24.30;10.15;;;;;;;;;;10361740;28;20056;-79
2023/02/21 21:27:47;;;;;;;18.13;10.40;;;;;;;;;;10370247;28;20450;-76
2023/02/21 21:32:48;;;;;;;27.42;9.43;;;;;;;;;;10372148;28;20033;-75
2023/02/21 21:37:48;;;;;;;24.73;9.07;;;;;;;;;;10383739;28;20029;-80
2023/02/21 21:42:50;;;;;;;22.13;8.40;;;;;;;;;;10380687;28;20444;-78
2023/02/21 21:47:51;;;;;;;18.20;8.20;;;;;;;;;;10391298;28;20478;-81
2023/02/21 21:52:54;;;;;;;16.95;8.55;;;;;;;;;;10397148;28;20060;-82
2023/02/21 21:57:54;;;;;;;21.77;9.93;;;;;;;;;;10408570;28;20049;-77
2023/02/21 22:02:56;;;;;;;21.70;9.52;;;;;;;;;;10405602;28;20021;-79
2023/02/21 22:07:57;;;;;;;26.13;9.68;;;;;;;;;;10383096;28;20092;-81
2023/02/21 22:12:59;;;;;;;27.70;10.63;;;;;;;;;;10387420;28;20108;-77
2023/02/21 22:18:02;;;;;;;25.17;9.98;;;;;;;;;;10395729;28;20028;-80
2023/02/21 22:23:04;;;;;;;20.35;9.25;;;;;;;;;;10428385;28;20051;-79
2023/02/21 22:28:08;;;;;;;27.00;8.98;;;;;;;;;;10391267;28;20025;-76
2023/02/21 22:33:12;;;;;;;19.10;8.60;;;;;;;;;;10384107;28;20067;-77
2023/02/21 22:38:16;;;;;;;28.70;9.40;;;;;;;;;;10384665;28;20048;-79
2023/02/21 22:43:18;;;;;;;28.27;10.50;;;;;;;;;;10404393;28;20037;-75
2023/02/21 22:48:19;;;;;;;14.73;8.18;;;;;;;;;;10375489;28;20037;-73
2023/02/21 22:53:20;;;;;;;13.55;7.30;;;;;;;;;;10387454;28;20041;-79
2023/02/21 22:58:20;;;;;;;13.70;5.38;;;;;;;;;;10386792;28;20029;-78
2023/02/21 23:03:21;;;;;;;8.50;5.10;;;;;;;;;;10387180;28;20100;-76
2023/02/21 23:08:21;;;;;;;12.60;5.03;;;;;;;;;;10388516;28;20459;-79
2023/02/21 23:13:22;;;;;;;12.60;5.38;;;;;;;;;;10405452;28;20298;-78
2023/02/21 23:18:24;;;;;;;12.85;5.30;;;;;;;;;;10386839;28;20022;-76
2023/02/21 23:23:26;;;;;;;16.45;5.95;;;;;;;;;;10386361;28;20021;-78
2023/02/21 23:28:27;;;;;;;10.77;6.00;;;;;;;;;;10392785;28;20167;-74
2023/02/21 23:33:29;;;;;;;13.30;6.85;;;;;;;;;;10388269;28;20085;-72
2023/02/21 23:38:30;;;;;;;15.52;7.32;;;;;;;;;;10385414;28;20030;-77
2023/02/21 23:43:34;;;;;;;19.63;11.17;;;;;;;;;;10386188;28;20025;-78
2023/02/21 23:48:36;;;;;;;26.80;12.20;;;;;;;;;;10385737;28;20508;-77
2023/02/21 23:53:36;;;;;;;23.90;11.38;;;;;;;;;;10386471;28;20029;-75
2023/02/21 23:58:37;;;;;;;21.70;11.40;;;;;;;;;;10386167;28;20033;-76
